createdAt,value
2022-09-07T00:00:16.162Z,82.96
2022-09-07T00:02:44.126Z,83.08
2022-09-07T00:05:11.981Z,82.70
2022-09-07T00:07:41.214Z,82.75
2022-09-07T00:10:10.041Z,82.70
2022-09-07T00:12:37.872Z,82.89
2022-09-07T00:15:08.320Z,83.10
2022-09-07T00:17:36.196Z,83.34
2022-09-07T00:20:05.719Z,83.38
2022-09-07T00:22:33.655Z,83.64
2022-09-07T00:25:03.082Z,83.74
2022-09-07T00:27:30.968Z,83.21
2022-09-07T00:29:58.871Z,83.69
2022-09-07T00:32:26.845Z,83.49
2022-09-07T00:34:54.673Z,83.74
2022-09-07T00:37:22.517Z,83.35
2022-09-07T00:39:50.549Z,82.69
2022-09-07T00:42:21.345Z,81.73
2022-09-07T00:45:08.200Z,80.92
2022-09-07T00:47:42.529Z,79.12
2022-09-07T00:50:16.271Z,78.70
2022-09-07T00:52:47.958Z,79.22
2022-09-07T00:55:18.178Z,79.58
2022-09-07T00:57:51.618Z,79.67
2022-09-07T01:00:19.887Z,80.06
2022-09-07T01:02:49.987Z,79.61
2022-09-07T01:05:24.434Z,80.47
2022-09-07T01:07:53.098Z,80.79
2022-09-07T01:10:23.777Z,80.84
2022-09-07T01:12:53.115Z,80.31
2022-09-07T01:15:22.228Z,80.41
2022-09-07T01:18:01.975Z,80.03
2022-09-07T01:21:10.114Z,80.03
2022-09-07T01:24:29.681Z,80.31
2022-09-07T01:27:38.695Z,80.17
2022-09-07T01:30:09.072Z,79.93
2022-09-07T01:32:55.639Z,80.63
2022-09-07T01:35:38.356Z,81.60
2022-09-07T01:38:10.751Z,83.00
2022-09-07T01:40:50.372Z,85.11
2022-09-07T01:43:31.800Z,86.09
2022-09-07T01:46:01.251Z,87.29
2022-09-07T01:48:29.390Z,88.65
2022-09-07T01:51:01.347Z,90.26
2022-09-07T01:53:34.826Z,90.08
2022-09-07T01:56:06.185Z,91.10
2022-09-07T01:58:40.774Z,91.37
2022-09-07T02:01:12.254Z,91.37
2022-09-07T02:03:44.204Z,91.15
2022-09-07T02:06:17.779Z,91.82
2022-09-07T02:08:52.638Z,92.14
2022-09-07T02:11:24.107Z,91.97
2022-09-07T02:13:56.679Z,92.60
2022-09-07T02:16:27.720Z,93.09
2022-09-07T02:18:58.282Z,94.07
2022-09-07T02:21:34.702Z,94.67
2022-09-07T02:24:08.322Z,95.45
2022-09-07T02:26:40.438Z,95.49
2022-09-07T02:29:09.959Z,96.49
2022-09-07T02:31:37.857Z,95.51
2022-09-07T02:34:05.786Z,96.09
2022-09-07T02:36:37.753Z,96.27
2022-09-07T02:39:05.658Z,95.99
2022-09-07T02:41:35.451Z,96.21
2022-09-07T02:44:07.679Z,96.31
2022-09-07T02:46:56.814Z,96.62
2022-09-07T02:49:40.262Z,96.01
2022-09-07T02:52:18.587Z,97.08
2022-09-07T02:54:58.514Z,96.41
2022-09-07T02:57:36.293Z,96.86
2022-09-07T03:00:11.053Z,96.81
2022-09-07T03:02:55.597Z,96.60
2022-09-07T03:05:29.406Z,96.76
2022-09-07T03:08:04.276Z,96.65
2022-09-07T03:10:32.497Z,95.24
2022-09-07T03:13:00.325Z,94.71
2022-09-07T03:15:29.203Z,94.54
2022-09-07T03:17:58.612Z,94.57
2022-09-07T03:20:26.458Z,94.02
2022-09-07T03:22:54.319Z,93.56
2022-09-07T03:25:22.827Z,93.81
2022-09-07T03:27:50.667Z,93.54
2022-09-07T03:30:18.663Z,93.91
2022-09-07T03:32:47.375Z,93.98
2022-09-07T03:35:16.884Z,94.01
2022-09-07T03:37:44.941Z,93.86
2022-09-07T03:40:15.060Z,93.94
2022-09-07T03:42:43.691Z,93.82
2022-09-07T03:45:12.392Z,93.56
2022-09-07T03:47:40.584Z,93.23
2022-09-07T03:50:08.943Z,93.55
2022-09-07T03:52:38.408Z,93.55
2022-09-07T03:55:07.005Z,94.39
2022-09-07T03:57:34.927Z,94.39
2022-09-07T04:00:03.119Z,94.46
2022-09-07T04:02:31.052Z,93.91
2022-09-07T04:04:58.856Z,94.69
2022-09-07T04:07:26.777Z,94.62
2022-09-07T04:09:56.010Z,94.51
2022-09-07T04:12:23.854Z,94.39
2022-09-07T04:14:51.695Z,94.75
2022-09-07T04:17:19.551Z,94.62
2022-09-07T04:19:47.394Z,94.37
2022-09-07T04:22:15.188Z,94.77
2022-09-07T04:24:42.984Z,94.74
2022-09-07T04:27:12.186Z,94.32
2022-09-07T04:29:40.008Z,94.49
2022-09-07T04:32:08.406Z,94.50
2022-09-07T04:34:38.381Z,94.33
2022-09-07T04:37:06.979Z,93.50
2022-09-07T04:39:35.456Z,93.77
2022-09-07T04:42:03.396Z,94.01
2022-09-07T04:44:32.596Z,94.01
2022-09-07T04:47:00.449Z,94.24
2022-09-07T04:49:28.340Z,94.07
2022-09-07T04:51:56.279Z,93.85
2022-09-07T04:54:24.129Z,93.82
2022-09-07T04:56:51.911Z,94.16
2022-09-07T04:59:19.746Z,95.20
2022-09-07T05:01:48.936Z,95.18
2022-09-07T05:04:16.934Z,95.30
2022-09-07T05:06:44.753Z,95.21
2022-09-07T05:09:13.466Z,95.01
2022-09-07T05:11:41.277Z,94.47
2022-09-07T05:14:09.196Z,94.31
2022-09-07T05:16:37.140Z,94.46
2022-09-07T05:19:06.940Z,94.77
2022-09-07T05:21:36.292Z,94.60
2022-09-07T05:24:05.534Z,94.03
2022-09-07T05:26:34.953Z,95.00
2022-09-07T05:31:52.059Z,93.81
2022-09-07T05:36:56.759Z,92.93
2022-09-07T05:39:25.025Z,93.07
2022-09-07T05:41:53.009Z,92.92
2022-09-07T05:47:08.954Z,93.18
2022-09-07T05:49:38.442Z,93.81
2022-09-07T05:52:06.362Z,93.15
2022-09-07T05:54:34.216Z,92.52
2022-09-07T05:57:03.364Z,92.39
2022-09-07T05:59:31.203Z,92.33
2022-09-07T06:01:59.222Z,92.34
2022-09-07T06:04:27.207Z,92.20
2022-09-07T06:07:20.651Z,92.42
2022-09-07T06:12:32.075Z,92.58
2022-09-07T06:15:01.491Z,92.15
2022-09-07T06:17:29.833Z,92.18
2022-09-07T06:19:58.008Z,92.20
2022-09-07T06:22:30.758Z,92.37
2022-09-07T06:24:58.954Z,91.53
2022-09-07T06:27:26.870Z,91.64
2022-09-07T06:29:54.803Z,92.43
2022-09-07T06:35:11.552Z,91.74
2022-09-07T06:37:40.755Z,91.83
2022-09-07T06:40:10.640Z,93.35
2022-09-07T06:42:38.715Z,92.61
2022-09-07T06:45:07.534Z,92.41
2022-09-07T06:47:35.450Z,93.33
2022-09-07T06:50:03.368Z,92.62
2022-09-07T06:55:20.441Z,91.00
2022-09-07T06:57:48.392Z,91.00
2022-09-07T07:00:16.961Z,90.20
2022-09-07T07:02:44.886Z,89.39
2022-09-07T07:05:12.766Z,90.38
2022-09-07T07:07:40.666Z,89.34
2022-09-07T07:10:09.586Z,88.29
2022-09-07T07:15:06.677Z,88.83
2022-09-07T07:17:35.979Z,88.32
2022-09-07T07:20:04.770Z,89.26
2022-09-07T07:22:48.158Z,90.28
2022-09-07T07:25:16.462Z,89.11
2022-09-07T07:27:46.838Z,88.48
2022-09-07T07:30:15.743Z,87.95
2022-09-07T07:32:44.240Z,87.29
2022-09-07T07:35:13.343Z,86.59
2022-09-07T07:37:41.418Z,85.35
2022-09-07T07:42:46.546Z,85.62
2022-09-07T07:48:02.720Z,84.04
2022-09-07T07:50:31.517Z,82.34
2022-09-07T07:55:48.423Z,79.88
2022-09-07T07:58:18.058Z,77.97
2022-09-07T08:01:01.555Z,77.49
2022-09-07T08:03:30.171Z,75.64
2022-09-07T08:05:58.183Z,75.41
2022-09-07T08:08:26.416Z,75.07
2022-09-07T08:10:54.425Z,74.72
2022-09-07T08:13:23.724Z,69.78
2022-09-07T08:15:51.954Z,70.28
2022-09-07T08:18:20.140Z,66.65
2022-09-07T08:20:48.398Z,66.24
2022-09-07T08:23:16.224Z,66.32
2022-09-07T08:25:51.769Z,67.22
2022-09-07T08:28:19.785Z,66.87
2022-09-07T08:30:49.309Z,67.03
2022-09-07T08:33:17.548Z,67.30
2022-09-07T08:35:55.675Z,67.54
2022-09-07T08:38:23.592Z,67.77
2022-09-07T08:40:52.136Z,68.35
2022-09-07T08:43:39.706Z,69.28
2022-09-07T08:46:21.338Z,68.92
2022-09-07T08:48:50.153Z,69.22
2022-09-07T08:51:24.436Z,67.95
2022-09-07T08:53:52.867Z,67.54
2022-09-07T08:56:28.163Z,67.22
2022-09-07T08:59:02.824Z,67.22
2022-09-07T09:01:36.007Z,65.44
2022-09-07T09:04:22.245Z,65.23
2022-09-07T09:07:05.206Z,61.68
2022-09-07T09:09:39.000Z,61.34
2022-09-07T09:12:18.932Z,60.38
2022-09-07T09:14:59.642Z,59.19
2022-09-07T09:17:34.031Z,58.38
2022-09-07T09:20:13.436Z,57.57
2022-09-07T09:22:41.390Z,56.36
2022-09-07T09:25:19.318Z,55.42
2022-09-07T09:27:47.521Z,52.70
2022-09-07T09:30:17.546Z,52.84
2022-09-07T09:32:48.478Z,51.30
2022-09-07T09:35:25.399Z,49.17
2022-09-07T09:37:53.154Z,48.86
2022-09-07T09:40:27.248Z,49.34
2022-09-07T09:43:04.112Z,48.71
2022-09-07T09:48:33.721Z,48.10
2022-09-07T09:53:56.073Z,48.49
2022-09-07T09:56:36.272Z,47.36
2022-09-07T10:05:31.438Z,47.01
2022-09-07T10:07:59.510Z,46.92
2022-09-07T10:10:29.533Z,47.06
2022-09-07T10:12:57.693Z,46.34
2022-09-07T10:15:41.210Z,47.51
2022-09-07T10:18:21.210Z,48.14
2022-09-07T10:20:50.599Z,46.64
2022-09-07T10:23:23.539Z,46.15
2022-09-07T10:25:51.479Z,45.73
2022-09-07T10:28:21.423Z,45.29
2022-09-07T10:31:11.020Z,45.04
2022-09-07T10:36:45.750Z,44.28
2022-09-07T10:39:18.886Z,43.67
2022-09-07T10:41:54.122Z,43.64
2022-09-07T10:44:34.080Z,43.13
2022-09-07T10:47:07.621Z,41.98
2022-09-07T10:50:21.930Z,42.11
2022-09-07T10:52:39.928Z,41.96
2022-09-07T10:55:14.680Z,42.24
2022-09-07T10:57:53.293Z,41.58
2022-09-07T11:00:22.552Z,40.98
2022-09-07T11:03:26.591Z,39.21
2022-09-07T11:06:07.805Z,39.78
2022-09-07T11:14:36.167Z,40.53
2022-09-07T11:17:11.969Z,40.16
2022-09-07T11:19:46.250Z,41.02
2022-09-07T11:22:23.899Z,41.47
2022-09-07T11:27:49.774Z,41.04
2022-09-07T11:30:21.735Z,41.02
2022-09-07T11:32:55.326Z,40.66
2022-09-07T11:35:32.368Z,41.50
2022-09-07T11:38:06.632Z,41.37
2022-09-07T11:40:40.844Z,41.20
2022-09-07T11:43:18.395Z,40.45
2022-09-07T11:45:49.758Z,40.17
2022-09-07T11:48:22.493Z,38.85
2022-09-07T11:50:55.038Z,39.67
2022-09-07T11:53:27.455Z,37.66
2022-09-07T11:56:01.087Z,36.20
2022-09-07T11:58:54.520Z,36.27
2022-09-07T12:01:33.265Z,36.43
2022-09-07T12:04:48.761Z,35.10
2022-09-07T12:07:42.616Z,34.76
2022-09-07T12:10:25.477Z,33.77
2022-09-07T12:13:17.464Z,33.25
2022-09-07T12:15:52.258Z,32.80
2022-09-07T12:18:35.066Z,33.38
2022-09-07T12:21:02.894Z,36.19
2022-09-07T12:23:32.137Z,36.12
2022-09-07T12:26:47.663Z,37.29
2022-09-07T12:29:27.671Z,35.96
2022-09-07T12:31:58.663Z,35.44
2022-09-07T12:34:54.385Z,35.70
2022-09-07T12:37:44.506Z,35.67
2022-09-07T12:40:57.719Z,36.46
2022-09-07T12:43:54.001Z,35.22
2022-09-07T12:46:46.751Z,35.13
2022-09-07T12:49:44.118Z,35.25
2022-09-07T12:52:37.712Z,33.58
2022-09-07T12:55:28.034Z,33.02
2022-09-07T12:58:06.707Z,33.81
2022-09-07T13:00:46.988Z,33.35
2022-09-07T13:03:51.853Z,32.32
2022-09-07T13:09:33.662Z,31.66
2022-09-07T13:12:04.794Z,31.02
2022-09-07T13:14:37.904Z,32.24
2022-09-07T13:17:28.840Z,32.61
2022-09-07T13:20:21.814Z,33.13
2022-09-07T13:22:57.570Z,34.08
2022-09-07T13:25:46.844Z,33.97
2022-09-07T13:28:28.304Z,34.62
2022-09-07T13:31:18.627Z,33.46
2022-09-07T13:33:51.046Z,32.83
2022-09-07T13:36:27.706Z,32.66
2022-09-07T13:38:56.450Z,31.90
2022-09-07T13:41:28.223Z,31.96
2022-09-07T13:43:59.482Z,31.63
2022-09-07T13:46:55.251Z,31.53
2022-09-07T13:49:37.532Z,30.54
2022-09-07T13:52:13.954Z,30.71
2022-09-07T13:54:58.629Z,30.33
2022-09-07T13:57:32.316Z,30.23
2022-09-07T14:00:00.407Z,29.75
2022-09-07T14:02:33.204Z,30.86
2022-09-07T14:05:02.246Z,30.21
2022-09-07T14:07:32.367Z,31.40
2022-09-07T14:10:12.970Z,32.69
2022-09-07T14:12:46.150Z,32.22
2022-09-07T14:15:23.545Z,32.82
2022-09-07T14:18:01.649Z,33.85
2022-09-07T14:20:29.484Z,34.68
2022-09-07T14:22:58.677Z,34.56
2022-09-07T14:25:27.172Z,34.66
2022-09-07T14:27:56.312Z,34.83
2022-09-07T14:30:28.003Z,36.01
2022-09-07T14:32:57.625Z,36.24
2022-09-07T14:35:28.370Z,36.35
2022-09-07T14:38:03.335Z,37.11
2022-09-07T14:40:31.467Z,38.12
2022-09-07T14:42:59.259Z,37.76
2022-09-07T14:45:34.945Z,38.10
2022-09-07T14:48:13.401Z,38.52
2022-09-07T14:50:43.234Z,38.30
2022-09-07T14:53:36.067Z,39.15
2022-09-07T14:56:10.115Z,39.63
2022-09-07T14:58:38.129Z,39.37
2022-09-07T15:04:00.780Z,40.59
2022-09-07T15:09:31.207Z,40.87
2022-09-07T15:12:15.491Z,41.59
2022-09-07T15:14:43.427Z,41.24
2022-09-07T15:20:38.407Z,42.02
2022-09-07T15:23:09.527Z,41.50
2022-09-07T15:25:40.722Z,42.27
2022-09-07T15:29:08.103Z,42.06
2022-09-07T15:33:54.256Z,42.72
2022-09-07T15:36:22.179Z,42.78
2022-09-07T15:39:05.301Z,42.92
2022-09-07T15:41:34.883Z,42.74
2022-09-07T15:44:03.024Z,42.93
2022-09-07T15:46:31.035Z,43.10
2022-09-07T15:48:58.922Z,43.42
2022-09-07T15:54:15.959Z,43.71
2022-09-07T15:57:48.448Z,44.15
2022-09-07T15:59:32.990Z,44.25
2022-09-07T16:02:01.052Z,44.18
2022-09-07T16:04:29.737Z,44.40
2022-09-07T16:06:58.021Z,45.29
2022-09-07T16:09:26.367Z,45.71
2022-09-07T16:11:55.870Z,45.89
2022-09-07T16:14:24.080Z,46.34
2022-09-07T16:19:40.991Z,46.03
2022-09-07T16:22:09.678Z,47.09
2022-09-07T16:24:37.768Z,46.82
2022-09-07T16:27:08.335Z,47.13
2022-09-07T16:29:36.521Z,47.84
2022-09-07T16:34:52.595Z,48.19
2022-09-07T16:37:20.412Z,48.36
2022-09-07T16:39:48.273Z,48.14
2022-09-07T16:42:17.484Z,48.95
2022-09-07T16:44:45.395Z,49.17
2022-09-07T16:47:13.261Z,49.73
2022-09-07T16:49:41.448Z,49.70
2022-09-07T16:52:10.969Z,49.62
2022-09-07T16:54:38.965Z,49.68
2022-09-07T16:57:06.878Z,50.10
2022-09-07T16:59:36.075Z,50.35
2022-09-07T17:02:03.995Z,50.50
2022-09-07T17:04:31.864Z,50.78
2022-09-07T17:06:59.766Z,50.72
2022-09-07T17:09:28.698Z,50.87
2022-09-07T17:11:56.589Z,50.83
2022-09-07T17:14:24.369Z,51.48
2022-09-07T17:16:53.737Z,51.83
2022-09-07T17:19:30.127Z,51.93
2022-09-07T17:21:59.720Z,52.30
2022-09-07T17:24:27.657Z,52.78
2022-09-07T17:26:55.574Z,53.24
2022-09-07T17:29:23.378Z,53.27
2022-09-07T17:34:40.419Z,54.26
2022-09-07T17:37:09.339Z,54.17
2022-09-07T17:39:38.763Z,53.95
2022-09-07T17:42:07.399Z,54.03
2022-09-07T17:44:38.068Z,54.16
2022-09-07T17:47:06.679Z,53.96
2022-09-07T17:49:34.884Z,53.91
2022-09-07T17:52:05.110Z,53.70
2022-09-07T17:56:04.759Z,54.40
2022-09-07T17:58:32.565Z,54.94
2022-09-07T18:01:02.938Z,54.74
2022-09-07T18:03:35.747Z,55.44
2022-09-07T18:06:04.085Z,55.72
2022-09-07T18:08:31.789Z,55.75
2022-09-07T18:13:56.627Z,56.11
2022-09-07T18:16:27.183Z,56.83
2022-09-07T18:18:55.829Z,56.51
2022-09-07T18:21:25.336Z,56.53
2022-09-07T18:23:56.115Z,57.04
2022-09-07T18:26:26.020Z,57.27
2022-09-07T18:29:04.124Z,56.45
2022-09-07T18:31:32.946Z,56.38
2022-09-07T18:34:01.698Z,56.35
2022-09-07T18:36:29.951Z,56.23
2022-09-07T18:39:01.358Z,55.89
2022-09-07T18:41:30.995Z,55.66
2022-09-07T18:43:58.932Z,55.44
2022-09-07T18:46:26.727Z,56.63
2022-09-07T18:48:55.410Z,57.30
2022-09-07T18:51:23.216Z,58.31
2022-09-07T18:53:50.955Z,57.93
2022-09-07T18:56:20.081Z,58.24
2022-09-07T18:58:49.556Z,58.76
2022-09-07T19:01:18.959Z,58.91
2022-09-07T19:03:54.324Z,58.67
2022-09-07T19:06:23.236Z,59.19
2022-09-07T19:08:51.483Z,59.51
2022-09-07T19:11:21.997Z,59.75
2022-09-07T19:13:56.640Z,60.55
2022-09-07T19:16:25.011Z,61.05
2022-09-07T19:18:54.458Z,61.89
2022-09-07T19:21:24.196Z,62.32
2022-09-07T19:23:56.436Z,62.95
2022-09-07T19:26:24.640Z,63.89
2022-09-07T19:28:55.428Z,63.12
2022-09-07T19:31:23.212Z,63.63
2022-09-07T19:33:56.233Z,63.88
2022-09-07T19:36:24.149Z,64.19
2022-09-07T19:38:51.964Z,64.17
2022-09-07T19:41:19.809Z,64.29
2022-09-07T19:43:47.841Z,64.29
2022-09-07T19:46:22.752Z,65.03
2022-09-07T19:48:52.409Z,65.47
2022-09-07T19:51:20.201Z,65.86
2022-09-07T19:53:48.299Z,65.87
2022-09-07T19:56:18.628Z,66.44
2022-09-07T19:58:46.757Z,66.20
2022-09-07T20:01:18.399Z,66.34
2022-09-07T20:03:50.020Z,66.47
2022-09-07T20:06:19.854Z,66.21
2022-09-07T20:08:47.883Z,65.45
2022-09-07T20:11:17.590Z,65.29
2022-09-07T20:13:45.672Z,65.67
2022-09-07T20:16:15.135Z,65.43
2022-09-07T20:18:44.693Z,65.67
2022-09-07T20:21:14.900Z,66.20
2022-09-07T20:23:43.525Z,66.57
2022-09-07T20:26:13.342Z,67.88
2022-09-07T20:28:42.181Z,68.65
2022-09-07T20:31:11.502Z,69.45
2022-09-07T20:33:39.256Z,69.25
2022-09-07T20:36:10.332Z,69.62
2022-09-07T20:38:41.422Z,69.51
2022-09-07T20:41:14.497Z,69.30
2022-09-07T20:43:42.180Z,69.67
2022-09-07T20:46:10.225Z,70.02
2022-09-07T20:48:38.469Z,70.10
2022-09-07T20:51:09.592Z,70.42
2022-09-07T20:53:38.123Z,70.26
2022-09-07T20:56:08.634Z,70.07
2022-09-07T20:58:36.907Z,69.75
2022-09-07T21:01:05.608Z,70.00
2022-09-07T21:03:33.682Z,70.38
2022-09-07T21:06:05.458Z,70.36
2022-09-07T21:08:37.788Z,70.31
2022-09-07T21:11:09.214Z,70.14
2022-09-07T21:13:37.215Z,69.65
2022-09-07T21:16:06.730Z,68.52
2022-09-07T21:18:35.265Z,68.66
2022-09-07T21:21:19.209Z,69.16
2022-09-07T21:23:49.368Z,69.14
2022-09-07T21:26:21.413Z,69.25
2022-09-07T21:28:49.175Z,69.35
2022-09-07T21:31:17.193Z,69.54
2022-09-07T21:33:44.910Z,69.42
2022-09-07T21:36:14.234Z,69.55
2022-09-07T21:38:42.782Z,69.93
2022-09-07T21:41:13.897Z,70.62
2022-09-07T21:43:42.322Z,71.84
2022-09-07T21:46:12.127Z,72.56
2022-09-07T21:48:40.372Z,72.59
2022-09-07T21:51:08.405Z,72.77
2022-09-07T21:53:36.267Z,71.69
2022-09-07T21:56:06.083Z,71.39
2022-09-07T21:58:35.787Z,71.24
2022-09-07T22:01:10.982Z,71.54
2022-09-07T22:03:39.823Z,71.40
2022-09-07T22:06:07.643Z,71.20
2022-09-07T22:08:36.716Z,71.81
2022-09-07T22:11:06.596Z,71.79
2022-09-07T22:13:36.066Z,71.66
2022-09-07T22:16:04.557Z,70.96
2022-09-07T22:18:32.464Z,70.48
2022-09-07T22:21:08.090Z,70.83
2022-09-07T22:23:38.602Z,70.58
2022-09-07T22:26:06.849Z,70.50
2022-09-07T22:28:36.945Z,70.52
2022-09-07T22:31:12.456Z,71.18
2022-09-07T22:33:40.474Z,71.19
2022-09-07T22:36:13.654Z,71.52
2022-09-07T22:38:41.740Z,71.83
2022-09-07T22:41:10.832Z,72.37
2022-09-07T22:43:40.201Z,73.36
2022-09-07T22:46:08.158Z,73.84
2022-09-07T22:48:36.150Z,74.35
2022-09-07T22:51:04.812Z,74.65
2022-09-07T22:53:34.558Z,74.71
2022-09-07T22:56:06.999Z,74.37
2022-09-07T22:58:35.014Z,73.88
2022-09-07T23:01:05.027Z,74.18
2022-09-07T23:03:34.451Z,74.30
2022-09-07T23:06:02.875Z,75.36
2022-09-07T23:08:31.004Z,75.32
2022-09-07T23:11:05.288Z,75.58
2022-09-07T23:13:33.656Z,75.60
2022-09-07T23:16:07.143Z,75.41
2022-09-07T23:18:35.892Z,74.48
2022-09-07T23:21:03.741Z,74.53
2022-09-07T23:23:31.679Z,74.79
2022-09-07T23:26:02.296Z,74.50
2022-09-07T23:28:30.699Z,73.38
2022-09-07T23:30:59.039Z,73.27
2022-09-07T23:33:28.616Z,72.60
2022-09-07T23:35:58.109Z,72.63
2022-09-07T23:38:26.418Z,72.38
2022-09-07T23:40:54.637Z,72.81
2022-09-07T23:43:22.435Z,75.47
2022-09-07T23:45:50.482Z,77.62
2022-09-07T23:48:18.365Z,77.46
2022-09-07T23:50:47.938Z,78.54
2022-09-07T23:53:16.351Z,77.04
2022-09-07T23:55:44.096Z,78.17
2022-09-07T23:58:11.874Z,77.63
